createdAt,value
2022-10-04T00:03:47.866Z,188.44444
2022-10-04T00:08:49.471Z,205.01695
2022-10-04T00:13:51.098Z,190.4
2022-10-04T00:18:52.721Z,183.68872
2022-10-04T00:23:54.378Z,180.01533
2022-10-04T00:28:55.987Z,181.83784
2022-10-04T00:33:57.634Z,177.33333
2022-10-04T00:38:59.209Z,170.47059
2022-10-04T00:44:00.845Z,164.78853
2022-10-04T00:49:02.542Z,164
2022-10-04T00:54:04.137Z,167.18841
2022-10-04T00:59:05.751Z,168
2022-10-04T01:04:07.360Z,163.21708
2022-10-04T01:09:09.001Z,159.38462
2022-10-04T01:14:10.583Z,164.78853
2022-10-04T01:19:12.202Z,166.38267
2022-10-04T01:24:13.817Z,163.21708
2022-10-04T01:29:15.396Z,168.81752
2022-10-04T01:34:17.200Z,183.68872
2022-10-04T01:39:18.842Z,182.75969
2022-10-04T01:44:20.447Z,182.75969
2022-10-04T01:49:22.120Z,178.22053
2022-10-04T01:54:23.778Z,173.85075
2022-10-04T01:59:25.478Z,162.43972
2022-10-04T02:04:27.084Z,165.58273
2022-10-04T02:09:28.730Z,168
2022-10-04T02:14:30.493Z,164
2022-10-04T02:19:32.174Z,165.58273
2022-10-04T02:24:33.811Z,170.47059
2022-10-04T02:29:35.487Z,167.18841
2022-10-04T02:34:37.094Z,170.47059
2022-10-04T02:39:38.700Z,168
2022-10-04T02:44:40.310Z,168
2022-10-04T02:49:41.974Z,167.18841
2022-10-04T02:54:43.643Z,181.83784
2022-10-04T02:59:45.314Z,176.45283
2022-10-04T03:04:46.915Z,171.30627
2022-10-04T03:09:48.557Z,171.30627
2022-10-04T03:14:50.186Z,170.47059
2022-10-04T03:19:51.797Z,168
2022-10-04T03:24:53.432Z,169.64103
2022-10-04T03:29:59.079Z,172.99628
2022-10-04T03:35:01.239Z,177.33333
2022-10-04T03:40:02.834Z,179.1145
2022-10-04T03:45:04.503Z,177.33333
2022-10-04T03:50:06.116Z,173.85075
2022-10-04T03:55:07.750Z,172.14815
2022-10-04T04:00:09.323Z,172.14815
2022-10-04T04:05:10.934Z,178.22053
2022-10-04T04:10:16.649Z,180.01533
2022-10-04T04:15:18.614Z,179.1145
2022-10-04T04:20:20.374Z,181.83784
2022-10-04T04:25:21.961Z,179.1145
2022-10-04T04:30:23.543Z,187.47826
2022-10-04T04:35:25.182Z,190.4
2022-10-04T04:40:26.792Z,182.75969
2022-10-04T04:45:28.441Z,176.45283
2022-10-04T04:50:30.091Z,178.22053
2022-10-04T04:55:44.491Z,176.45283
2022-10-04T05:00:52.141Z,175.57895
2022-10-04T05:05:53.758Z,176.45283
2022-10-04T05:10:55.537Z,175.57895
2022-10-04T05:15:57.139Z,178.22053
2022-10-04T05:20:58.782Z,178.22053
2022-10-04T05:26:00.366Z,181.83784
2022-10-04T05:31:01.927Z,178.22053
2022-10-04T05:36:03.578Z,190.4
2022-10-04T05:41:05.347Z,184.625
2022-10-04T05:46:06.952Z,182.75969
2022-10-04T05:51:08.624Z,185.56863
2022-10-04T05:56:10.209Z,185.56863
2022-10-04T06:01:11.855Z,197.49794
2022-10-04T06:06:13.473Z,192.3871
2022-10-04T06:11:15.096Z,191.38956
2022-10-04T06:16:16.715Z,188.44444
2022-10-04T06:21:18.363Z,189.41833
2022-10-04T06:26:20.099Z,191.38956
2022-10-04T06:31:21.755Z,191.38956
2022-10-04T06:36:23.342Z,189.41833
2022-10-04T06:41:25.102Z,189.41833
2022-10-04T06:46:26.864Z,188.44444
2022-10-04T06:51:28.509Z,192.3871
2022-10-04T06:56:30.133Z,190.4
2022-10-04T07:01:31.820Z,192.3871
2022-10-04T07:06:33.446Z,191.38956
2022-10-04T07:11:35.075Z,191.38956
2022-10-04T07:16:36.677Z,191.38956
2022-10-04T07:21:38.300Z,193.39271
2022-10-04T07:26:39.916Z,192.3871
2022-10-04T07:31:41.978Z,191.38956
2022-10-04T07:36:43.807Z,193.39271
2022-10-04T07:41:45.817Z,195.42857
2022-10-04T07:46:47.596Z,199.60166
2022-10-04T07:51:49.212Z,196.45902
2022-10-04T07:56:50.835Z,197.49794
2022-10-04T08:01:52.482Z,196.45902
2022-10-04T08:06:54.091Z,197.49794
2022-10-04T08:11:55.697Z,195.42857
2022-10-04T08:16:57.322Z,195.42857
2022-10-04T08:21:58.911Z,192.3871
2022-10-04T08:27:00.517Z,188.44444
2022-10-04T08:32:05.256Z,194.4065
2022-10-04T08:37:07.316Z,200.66667
2022-10-04T08:42:09.034Z,200.66667
2022-10-04T08:47:10.640Z,191.38956
2022-10-04T08:52:12.274Z,192.3871
2022-10-04T08:57:16.106Z,185.56863
2022-10-04T09:02:18.088Z,179.1145
2022-10-04T09:07:19.743Z,179.1145
2022-10-04T09:12:21.406Z,180.01533
2022-10-04T09:17:23.173Z,182.75969
2022-10-04T09:22:24.812Z,188.44444
2022-10-04T09:27:53.277Z,181.83784
2022-10-04T09:32:56.338Z,186.51969
2022-10-04T09:37:57.926Z,191.38956
2022-10-04T09:42:59.557Z,190.4
2022-10-04T09:48:01.270Z,198.54545
2022-10-04T09:53:02.846Z,198.54545
2022-10-04T09:58:04.448Z,197.49794
2022-10-04T10:03:06.110Z,203.91561
2022-10-04T10:08:07.721Z,200.66667
2022-10-04T10:13:09.340Z,198.54545
2022-10-04T10:18:10.946Z,199.60166
2022-10-04T10:23:12.523Z,199.60166
2022-10-04T10:28:14.127Z,199.60166
2022-10-04T10:33:15.752Z,200.66667
2022-10-04T10:38:17.389Z,200.66667
2022-10-04T10:43:19.013Z,200.66667
2022-10-04T10:48:20.615Z,201.74059
2022-10-04T10:53:22.220Z,208.37768
2022-10-04T10:58:23.787Z,203.91561
2022-10-04T11:03:28.495Z,206.12766
2022-10-04T11:08:33.619Z,203.91561
2022-10-04T11:13:35.233Z,201.74059
2022-10-04T11:18:36.951Z,202.82353
2022-10-04T11:23:38.537Z,200.66667
2022-10-04T11:28:40.219Z,211.82609
2022-10-04T11:33:41.876Z,211.82609
2022-10-04T11:38:43.456Z,205.01695
2022-10-04T11:43:45.082Z,206.12766
2022-10-04T11:48:46.746Z,205.01695
2022-10-04T11:53:48.370Z,205.01695
2022-10-04T11:58:50.002Z,203.91561
2022-10-04T12:03:51.860Z,199.60166
2022-10-04T12:08:53.694Z,205.01695
2022-10-04T12:13:55.330Z,209.51724
2022-10-04T12:18:56.959Z,208.37768
2022-10-04T12:23:58.533Z,212.99563
2022-10-04T12:29:00.137Z,211.82609
2022-10-04T12:34:01.758Z,211.82609
2022-10-04T12:39:03.428Z,211.82609
2022-10-04T12:44:05.045Z,207.24786
2022-10-04T12:49:06.669Z,211.82609
2022-10-04T12:54:08.262Z,211.82609
2022-10-04T12:59:09.884Z,208.37768
2022-10-04T13:04:44.243Z,209.51724
2022-10-04T13:09:59.770Z,206.12766
2022-10-04T13:15:14.194Z,200.66667
2022-10-04T13:20:15.805Z,199.60166
2022-10-04T13:25:17.457Z,202.82353
2022-10-04T13:30:19.106Z,208.37768
2022-10-04T13:35:21.109Z,208.37768
2022-10-04T13:40:22.724Z,210.66667
2022-10-04T13:45:24.524Z,205.01695
2022-10-04T13:50:26.172Z,207.24786
2022-10-04T13:55:27.772Z,205.01695
2022-10-04T14:00:29.349Z,202.82353
2022-10-04T14:05:30.954Z,205.01695
2022-10-04T14:10:32.607Z,201.74059
2022-10-04T14:15:34.197Z,206.12766
2022-10-04T14:20:35.835Z,206.12766
2022-10-04T14:25:37.428Z,207.24786
2022-10-04T14:30:39.095Z,202.82353
2022-10-04T14:35:40.730Z,201.74059
2022-10-04T14:40:42.324Z,194.4065
2022-10-04T14:45:44.025Z,195.42857
2022-10-04T14:50:45.669Z,195.42857
2022-10-04T14:55:47.254Z,199.60166
2022-10-04T15:00:48.885Z,203.91561
2022-10-04T15:05:50.548Z,202.82353
2022-10-04T15:10:52.119Z,199.60166
2022-10-04T15:15:53.763Z,202.82353
2022-10-04T15:20:55.401Z,202.82353
2022-10-04T15:25:57.097Z,208.37768
2022-10-04T15:30:58.729Z,207.24786
2022-10-04T15:36:00.330Z,207.24786
2022-10-04T15:41:01.921Z,206.12766
2022-10-04T15:46:03.876Z,207.24786
2022-10-04T15:51:05.611Z,208.37768
2022-10-04T15:56:07.266Z,209.51724
2022-10-04T16:01:09.089Z,208.37768
2022-10-04T16:06:10.788Z,203.91561
2022-10-04T16:11:12.416Z,207.24786
2022-10-04T16:16:14.066Z,209.51724
2022-10-04T16:21:15.704Z,207.24786
2022-10-04T16:26:17.303Z,203.91561
2022-10-04T16:31:20.299Z,208.37768
2022-10-04T16:36:22.325Z,208.37768
2022-10-04T16:41:23.964Z,208.37768
2022-10-04T16:46:25.711Z,203.91561
2022-10-04T16:51:27.358Z,206.12766
2022-10-04T16:56:28.977Z,214.17544
2022-10-04T17:01:30.676Z,206.12766
2022-10-04T17:06:32.254Z,205.01695
2022-10-04T17:11:33.831Z,206.12766
2022-10-04T17:16:35.473Z,207.24786
2022-10-04T17:21:37.107Z,207.24786
2022-10-04T17:26:38.699Z,199.60166
2022-10-04T17:31:40.292Z,205.01695
2022-10-04T17:36:42.158Z,206.12766
2022-10-04T17:41:43.960Z,214.17544
2022-10-04T17:46:46.062Z,210.66667
2022-10-04T17:51:47.936Z,207.24786
2022-10-04T17:56:49.568Z,203.91561
2022-10-04T18:01:51.265Z,201.74059
2022-10-04T18:06:53.001Z,198.54545
2022-10-04T18:11:54.617Z,198.54545
2022-10-04T18:16:56.232Z,200.66667
2022-10-04T18:21:57.808Z,210.66667
2022-10-04T18:26:59.428Z,215.36564
2022-10-04T18:32:01.351Z,212.99563
2022-10-04T18:37:02.958Z,209.51724
2022-10-04T18:42:04.585Z,211.82609
2022-10-04T18:47:06.225Z,212.99563
2022-10-04T18:52:07.846Z,215.36564
2022-10-04T18:57:09.460Z,217.77778
2022-10-04T19:02:11.140Z,217.77778
2022-10-04T19:07:12.775Z,220.23318
2022-10-04T19:12:14.358Z,217.77778
2022-10-04T19:17:15.987Z,220.23318
2022-10-04T19:22:17.614Z,219
2022-10-04T19:27:19.188Z,220.23318
2022-10-04T19:32:20.836Z,222.73303
2022-10-04T19:37:22.563Z,229.18519
2022-10-04T19:42:24.200Z,231.85047
2022-10-04T19:47:25.883Z,224
2022-10-04T19:52:27.536Z,240.15385
2022-10-04T19:57:29.208Z,238.73684
2022-10-04T20:02:30.870Z,231.85047
2022-10-04T20:07:32.534Z,229.18519
2022-10-04T20:12:34.192Z,224
2022-10-04T20:17:35.808Z,221.47748
2022-10-04T20:22:37.409Z,229.18519
2022-10-04T20:27:39.004Z,222.73303
2022-10-04T20:32:40.582Z,226.56881
2022-10-04T20:37:42.217Z,230.51163
2022-10-04T20:42:44.602Z,234.56604
2022-10-04T20:47:46.229Z,235.94313
2022-10-04T20:52:47.819Z,230.51163
2022-10-04T20:57:49.442Z,244.4878
2022-10-04T21:02:51.189Z,250.46766
2022-10-04T21:07:52.780Z,256.69036
2022-10-04T21:12:54.377Z,263.17098
2022-10-04T21:17:56.000Z,255.11111
2022-10-04T21:22:57.617Z,280.61202
2022-10-04T21:27:59.269Z,271.65957
2022-10-04T21:33:01.012Z,258.28571
2022-10-04T21:38:02.684Z,275.1828
2022-10-04T21:43:04.317Z,276.97297
2022-10-04T21:48:06.010Z,271.65957
2022-10-04T21:53:07.691Z,282.46154
2022-10-04T21:58:09.283Z,290.06742
2022-10-04T22:03:10.862Z,286.22222
2022-10-04T22:08:12.492Z,261.52577
2022-10-04T22:13:14.100Z,241.58454
2022-10-04T22:16:12.490Z,233.20188
2022-10-04T22:21:14.162Z,247.44828
2022-10-04T22:26:03.103Z,252
2022-10-04T22:31:04.723Z,233.20188
2022-10-04T22:36:06.353Z,227.87097
2022-10-04T22:41:07.987Z,217.77778
2022-10-04T22:46:09.703Z,214.17544
2022-10-04T22:51:11.395Z,207.24786
2022-10-04T22:56:13.027Z,210.66667
2022-10-04T23:01:14.616Z,203.91561
2022-10-04T23:06:16.447Z,207.24786
2022-10-04T23:11:18.028Z,205.01695
2022-10-04T23:16:19.734Z,201.74059
2022-10-04T23:21:21.355Z,183.68872
2022-10-04T23:26:22.935Z,186.51969
2022-10-04T23:31:24.595Z,179.1145
2022-10-04T23:36:26.228Z,184.625
2022-10-04T23:41:27.849Z,177.33333
2022-10-04T23:46:29.469Z,191.38956
2022-10-04T23:51:31.035Z,191.38956
2022-10-04T23:56:32.666Z,184.625
